createdAt,value
2018-03-01T00:02:18.591Z,19.30
2018-03-01T00:04:48.216Z,19.20
2018-03-01T00:07:15.825Z,19.20
2018-03-01T00:09:44.656Z,19.20
2018-03-01T00:12:12.660Z,19.20
2018-03-01T00:14:49.564Z,19.30
2018-03-01T00:17:18.246Z,19.20
2018-03-01T00:19:49.374Z,19.20
2018-03-01T00:22:28.712Z,19.20
2018-03-01T00:24:57.278Z,19.20
2018-03-01T00:27:27.775Z,19.20
2018-03-01T00:30:00.309Z,19.30
2018-03-01T00:32:28.635Z,19.30
2018-03-01T00:34:57.012Z,19.30
2018-03-01T00:37:31.847Z,19.30
2018-03-01T00:40:00.965Z,19.30
2018-03-01T00:42:31.631Z,19.30
2018-03-01T00:44:59.585Z,19.30
2018-03-01T00:47:28.415Z,19.30
2018-03-01T00:49:56.283Z,19.30
2018-03-01T00:52:25.600Z,19.30
2018-03-01T00:54:54.125Z,19.30
2018-03-01T00:57:26.037Z,19.30
2018-03-01T00:59:53.870Z,19.40
2018-03-01T01:02:22.074Z,19.30
2018-03-01T01:04:51.601Z,19.40
2018-03-01T01:07:25.447Z,19.40
2018-03-01T01:09:54.291Z,19.40
2018-03-01T01:12:23.742Z,19.30
2018-03-01T01:14:52.597Z,19.30
2018-03-01T01:17:23.606Z,19.30
2018-03-01T01:19:51.854Z,19.30
2018-03-01T01:22:20.286Z,19.30
2018-03-01T01:24:56.083Z,19.30
2018-03-01T01:27:24.042Z,19.40
2018-03-01T01:29:54.095Z,19.40
2018-03-01T01:32:22.964Z,19.40
2018-03-01T01:34:52.099Z,19.30
2018-03-01T01:37:21.771Z,19.40
2018-03-01T01:39:51.291Z,19.40
2018-03-01T01:42:19.243Z,19.30
2018-03-01T01:44:49.585Z,19.30
2018-03-01T01:47:18.318Z,19.30
2018-03-01T01:49:50.164Z,19.30
2018-03-01T01:52:18.020Z,19.30
2018-03-01T01:54:46.807Z,19.30
2018-03-01T01:57:17.110Z,19.20
2018-03-01T01:59:46.105Z,19.30
2018-03-01T02:02:13.742Z,19.30
2018-03-01T02:04:41.355Z,19.30
2018-03-01T02:07:08.971Z,19.30
2018-03-01T02:09:36.584Z,19.30
2018-03-01T02:12:04.185Z,19.30
2018-03-01T02:14:31.805Z,19.30
2018-03-01T02:16:59.439Z,19.30
2018-03-01T02:19:27.087Z,19.30
2018-03-01T02:21:55.455Z,19.20
2018-03-01T02:24:24.058Z,19.30
2018-03-01T02:26:51.945Z,19.20
2018-03-01T02:29:19.553Z,19.20
2018-03-01T02:31:47.162Z,19.20
2018-03-01T02:34:14.766Z,19.20
2018-03-01T02:36:42.374Z,19.20
2018-03-01T02:39:10.763Z,19.20
2018-03-01T02:41:38.376Z,19.20
2018-03-01T02:44:05.964Z,19.20
2018-03-01T02:46:34.356Z,19.20
2018-03-01T02:49:02.719Z,19.20
2018-03-01T02:51:30.316Z,19.20
2018-03-01T02:53:57.919Z,19.20
2018-03-01T02:56:25.551Z,19.30
2018-03-01T02:58:53.156Z,19.20
2018-03-01T03:01:20.796Z,19.20
2018-03-01T03:03:48.404Z,19.30
2018-03-01T03:06:16.778Z,19.30
2018-03-01T03:08:45.158Z,19.30
2018-03-01T03:11:13.532Z,19.20
2018-03-01T03:13:41.127Z,19.20
2018-03-01T03:16:08.763Z,19.30
2018-03-01T03:18:37.127Z,19.40
2018-03-01T03:21:04.761Z,19.40
2018-03-01T03:23:32.377Z,19.40
2018-03-01T03:26:00.751Z,19.50
2018-03-01T03:28:29.121Z,19.60
2018-03-01T03:30:57.251Z,19.60
2018-03-01T03:33:24.854Z,19.60
2018-03-01T03:35:52.499Z,19.80
2018-03-01T03:38:20.132Z,19.80
2018-03-01T03:40:47.750Z,19.80
2018-03-01T03:43:15.347Z,19.90
2018-03-01T03:45:42.992Z,19.90
2018-03-01T03:48:10.596Z,20.00
2018-03-01T03:50:38.236Z,20.00
2018-03-01T03:53:05.865Z,20.00
2018-03-01T03:55:34.274Z,20.10
2018-03-01T03:58:01.910Z,20.00
2018-03-01T04:00:29.516Z,20.00
2018-03-01T04:02:57.138Z,20.10
2018-03-01T04:05:24.935Z,20.10
2018-03-01T04:07:52.869Z,20.30
2018-03-01T04:10:20.485Z,20.20
2018-03-01T04:12:48.095Z,20.10
2018-03-01T04:15:15.749Z,20.20
2018-03-01T04:17:43.597Z,20.20
2018-03-01T04:20:11.226Z,20.10
2018-03-01T04:22:38.851Z,20.20
2018-03-01T04:25:06.502Z,20.10
2018-03-01T04:27:34.204Z,20.20
2018-03-01T04:30:01.838Z,20.00
2018-03-01T04:32:29.460Z,19.20
2018-03-01T04:34:57.064Z,18.40
2018-03-01T04:37:25.421Z,16.70
2018-03-01T04:39:53.079Z,16.60
2018-03-01T04:42:20.679Z,16.60
2018-03-01T04:44:48.299Z,16.70
2018-03-01T04:47:16.284Z,16.40
2018-03-01T04:49:45.085Z,16.20
2018-03-01T04:52:15.312Z,16.60
2018-03-01T04:54:43.714Z,17.20
2018-03-01T04:57:12.077Z,17.40
2018-03-01T04:59:41.624Z,17.40
2018-03-01T05:02:10.420Z,17.30
2018-03-01T05:04:39.251Z,17.30
2018-03-01T05:07:12.723Z,17.30
2018-03-01T05:09:40.373Z,17.40
2018-03-01T05:12:08.317Z,17.30
2018-03-01T05:14:35.945Z,17.20
2018-03-01T05:17:05.430Z,17.00
2018-03-01T05:19:33.855Z,17.10
2018-03-01T05:22:02.099Z,17.20
2018-03-01T05:24:32.424Z,17.10
2018-03-01T05:27:03.323Z,17.00
2018-03-01T05:29:31.684Z,17.00
2018-03-01T05:32:00.517Z,17.10
2018-03-01T05:34:29.062Z,17.00
2018-03-01T05:36:57.330Z,17.00
2018-03-01T05:39:30.573Z,17.00
2018-03-01T05:42:00.489Z,16.90
2018-03-01T05:44:28.093Z,16.90
2018-03-01T05:46:57.556Z,16.90
2018-03-01T05:49:29.729Z,16.90
2018-03-01T05:52:00.522Z,17.00
2018-03-01T05:54:28.496Z,16.90
2018-03-01T05:56:57.511Z,16.80
2018-03-01T05:59:25.532Z,16.80
2018-03-01T06:01:56.135Z,16.80
2018-03-01T06:04:25.775Z,16.90
2018-03-01T06:06:54.548Z,16.80
2018-03-01T06:09:28.952Z,16.80
2018-03-01T06:12:00.630Z,16.80
2018-03-01T06:14:29.581Z,16.80
2018-03-01T06:16:57.785Z,16.70
2018-03-01T06:19:27.548Z,16.70
2018-03-01T06:21:56.737Z,16.70
2018-03-01T06:24:26.507Z,16.80
2018-03-01T06:26:57.366Z,16.80
2018-03-01T06:29:29.354Z,16.80
2018-03-01T06:31:56.985Z,16.70
2018-03-01T06:34:24.817Z,16.70
2018-03-01T06:36:53.303Z,16.70
2018-03-01T06:39:21.915Z,16.70
2018-03-01T06:41:56.221Z,16.50
2018-03-01T06:44:25.840Z,16.50
2018-03-01T06:46:55.333Z,16.60
2018-03-01T06:49:25.165Z,16.60
2018-03-01T06:51:54.136Z,16.50
2018-03-01T06:54:29.688Z,16.50
2018-03-01T06:56:58.613Z,16.60
2018-03-01T06:59:26.359Z,16.30
2018-03-01T07:01:55.224Z,16.30
2018-03-01T07:04:25.226Z,16.50
2018-03-01T07:06:54.285Z,16.50
2018-03-01T07:09:21.899Z,16.50
2018-03-01T07:11:49.803Z,16.50
2018-03-01T07:14:19.145Z,16.50
2018-03-01T07:16:53.671Z,16.60
2018-03-01T07:19:26.030Z,16.60
2018-03-01T07:21:54.688Z,16.70
2018-03-01T07:24:28.026Z,16.60
2018-03-01T07:26:57.824Z,16.60
2018-03-01T07:29:30.026Z,16.60
2018-03-01T07:31:58.656Z,16.50
2018-03-01T07:34:26.434Z,16.50
2018-03-01T07:36:54.186Z,16.60
2018-03-01T07:39:22.016Z,16.70
2018-03-01T07:42:02.718Z,16.70
2018-03-01T07:44:30.577Z,16.70
2018-03-01T07:46:59.108Z,16.80
2018-03-01T07:49:31.475Z,16.70
2018-03-01T07:51:59.085Z,16.70
2018-03-01T07:54:28.427Z,16.80
2018-03-01T07:56:57.038Z,16.90
2018-03-01T07:59:29.064Z,16.90
2018-03-01T08:01:57.936Z,17.00
2018-03-01T08:04:29.917Z,17.10
2018-03-01T08:07:00.268Z,17.20
2018-03-01T08:09:29.103Z,17.20
2018-03-01T08:12:01.398Z,17.10
2018-03-01T08:14:32.176Z,17.40
2018-03-01T08:16:59.778Z,17.30
2018-03-01T08:19:27.884Z,17.20
2018-03-01T08:21:55.746Z,17.20
2018-03-01T08:24:23.768Z,17.10
2018-03-01T08:26:52.183Z,17.00
2018-03-01T08:29:20.636Z,16.80
2018-03-01T08:31:50.118Z,16.80
2018-03-01T08:34:20.235Z,17.00
2018-03-01T08:36:48.698Z,16.90
2018-03-01T08:39:16.685Z,16.80
2018-03-01T08:41:44.763Z,17.00
2018-03-01T08:44:14.338Z,16.80
2018-03-01T08:46:42.677Z,16.60
2018-03-01T08:49:14.869Z,16.60
2018-03-01T08:51:43.712Z,16.80
2018-03-01T08:54:11.935Z,16.80
2018-03-01T08:56:44.321Z,16.90
2018-03-01T08:59:12.659Z,17.00
2018-03-01T09:01:42.947Z,17.00
2018-03-01T09:04:10.731Z,16.80
2018-03-01T09:06:38.323Z,16.70
2018-03-01T09:09:08.500Z,16.70
2018-03-01T09:11:38.083Z,16.90
2018-03-01T09:14:06.525Z,16.70
2018-03-01T09:16:36.529Z,16.70
2018-03-01T09:19:04.612Z,16.60
2018-03-01T09:21:33.388Z,16.40
2018-03-01T09:24:01.923Z,16.30
2018-03-01T09:26:29.579Z,16.30
2018-03-01T09:28:59.276Z,16.20
2018-03-01T09:31:27.295Z,16.20
2018-03-01T09:33:55.897Z,16.10
2018-03-01T09:36:36.878Z,16.10
2018-03-01T09:39:05.635Z,16.10
2018-03-01T09:41:35.011Z,16.10
2018-03-01T09:44:04.969Z,16.20
2018-03-01T09:46:33.326Z,16.20
2018-03-01T09:49:05.040Z,16.10
2018-03-01T09:51:35.883Z,16.20
2018-03-01T09:54:03.876Z,16.10
2018-03-01T09:56:35.211Z,16.00
2018-03-01T09:59:03.464Z,16.00
2018-03-01T10:01:32.268Z,16.10
2018-03-01T10:04:01.391Z,16.00
2018-03-01T10:06:30.762Z,16.10
2018-03-01T10:09:03.344Z,16.10
2018-03-01T10:11:32.232Z,16.10
2018-03-01T10:14:12.946Z,16.00
2018-03-01T10:16:40.667Z,16.00
2018-03-01T10:19:11.998Z,16.10
2018-03-01T10:21:39.613Z,16.10
2018-03-01T10:24:09.027Z,16.00
2018-03-01T10:26:46.054Z,16.00
2018-03-01T10:29:15.962Z,16.00
2018-03-01T10:31:48.159Z,15.90
2018-03-01T10:34:18.179Z,15.90
2018-03-01T10:36:53.453Z,15.80
2018-03-01T10:39:21.709Z,15.80
2018-03-01T10:41:54.866Z,15.90
2018-03-01T10:44:22.865Z,15.90
2018-03-01T10:46:58.160Z,15.80
2018-03-01T10:49:27.244Z,15.80
2018-03-01T10:51:55.620Z,15.80
2018-03-01T10:54:36.762Z,15.70
2018-03-01T10:57:05.591Z,15.70
2018-03-01T10:59:40.439Z,15.70
2018-03-01T11:02:09.998Z,15.60
2018-03-01T11:04:39.540Z,15.60
2018-03-01T11:07:09.313Z,15.60
2018-03-01T11:09:37.233Z,15.60
2018-03-01T11:12:05.158Z,15.60
2018-03-01T11:14:35.657Z,15.60
2018-03-01T11:17:05.539Z,15.60
2018-03-01T11:19:37.523Z,15.60
2018-03-01T11:22:06.704Z,15.60
2018-03-01T11:24:41.470Z,15.60
2018-03-01T11:27:18.777Z,15.60
2018-03-01T11:29:51.350Z,15.60
2018-03-01T11:32:19.631Z,15.60
2018-03-01T11:34:47.752Z,15.70
2018-03-01T11:37:16.884Z,15.70
2018-03-01T11:39:50.683Z,15.70
2018-03-01T11:42:23.136Z,15.70
2018-03-01T11:44:51.497Z,15.90
2018-03-01T11:47:26.340Z,15.80
2018-03-01T11:49:56.417Z,16.20
2018-03-01T11:52:26.704Z,16.20
2018-03-01T11:54:54.900Z,16.50
2018-03-01T11:57:26.594Z,16.50
2018-03-01T12:00:00.173Z,16.50
2018-03-01T12:02:29.267Z,16.50
2018-03-01T12:04:57.611Z,16.50
2018-03-01T12:07:27.528Z,16.50
2018-03-01T12:10:00.517Z,16.70
2018-03-01T12:12:34.776Z,16.70
2018-03-01T12:15:03.755Z,16.80
2018-03-01T12:17:35.587Z,16.80
2018-03-01T12:20:04.062Z,16.70
2018-03-01T12:22:36.281Z,16.60
2018-03-01T12:25:05.126Z,16.60
2018-03-01T12:27:35.884Z,16.30
2018-03-01T12:30:08.959Z,16.20
2018-03-01T12:32:36.900Z,16.30
2018-03-01T12:35:12.303Z,16.20
2018-03-01T12:37:41.024Z,16.30
2018-03-01T12:40:13.200Z,16.50
2018-03-01T12:42:41.142Z,16.70
2018-03-01T12:45:12.166Z,16.70
2018-03-01T12:47:42.810Z,16.70
2018-03-01T12:50:13.827Z,16.80
2018-03-01T12:52:42.526Z,16.90
2018-03-01T12:55:16.102Z,17.00
2018-03-01T12:57:45.598Z,17.20
2018-03-01T13:00:13.778Z,17.20
2018-03-01T13:02:45.151Z,17.00
2018-03-01T13:05:14.657Z,16.90
2018-03-01T13:07:42.718Z,16.80
2018-03-01T13:10:16.010Z,16.60
2018-03-01T13:12:45.540Z,16.70
2018-03-01T13:15:13.353Z,16.70
2018-03-01T13:17:41.497Z,16.50
2018-03-01T13:20:21.691Z,16.40
2018-03-01T13:22:55.129Z,16.30
2018-03-01T13:25:25.040Z,16.50
2018-03-01T13:27:53.610Z,16.60
2018-03-01T13:30:27.662Z,16.60
2018-03-01T13:33:02.175Z,16.40
2018-03-01T13:35:30.271Z,16.20
2018-03-01T13:37:59.300Z,16.00
2018-03-01T13:40:28.956Z,15.90
2018-03-01T13:43:09.554Z,16.00
2018-03-01T13:45:41.672Z,15.90
2018-03-01T13:48:09.704Z,15.80
2018-03-01T13:50:39.010Z,15.90
2018-03-01T13:53:11.971Z,15.90
2018-03-01T13:55:40.661Z,15.90
2018-03-01T13:58:10.739Z,16.00
2018-03-01T14:00:39.623Z,16.00
2018-03-01T14:03:13.165Z,16.00
2018-03-01T14:05:45.724Z,15.90
2018-03-01T14:08:21.420Z,15.80
2018-03-01T14:10:51.193Z,15.70
2018-03-01T14:16:26.407Z,16.00
2018-03-01T14:18:56.028Z,16.10
2018-03-01T14:21:26.616Z,16.30
2018-03-01T14:24:03.364Z,16.30
2018-03-01T14:26:34.748Z,16.20
2018-03-01T14:32:05.908Z,15.90
2018-03-01T14:34:35.045Z,15.90
2018-03-01T14:37:04.041Z,15.90
2018-03-01T14:39:31.876Z,15.90
2018-03-01T14:42:03.916Z,16.10
2018-03-01T14:44:32.650Z,15.90
2018-03-01T14:47:00.874Z,15.90
2018-03-01T14:49:29.665Z,16.10
2018-03-01T14:52:00.116Z,15.90
2018-03-01T14:54:29.183Z,15.90
2018-03-01T14:56:58.900Z,15.90
2018-03-01T14:59:27.840Z,15.90
2018-03-01T15:01:55.848Z,16.00
2018-03-01T15:04:24.870Z,16.00
2018-03-01T15:06:53.932Z,16.00
2018-03-01T15:09:21.774Z,16.00
2018-03-01T15:11:52.432Z,15.90
2018-03-01T15:14:25.874Z,16.10
2018-03-01T15:16:53.654Z,15.80
2018-03-01T15:19:22.548Z,15.70
2018-03-01T15:21:52.393Z,15.80
2018-03-01T15:24:21.369Z,15.70
2018-03-01T15:26:50.705Z,16.00
2018-03-01T15:29:21.203Z,15.90
2018-03-01T15:31:49.372Z,15.80
2018-03-01T15:34:21.271Z,15.60
2018-03-01T15:36:57.119Z,15.70
2018-03-01T15:39:25.171Z,15.70
2018-03-01T15:41:52.797Z,15.70
2018-03-01T15:44:20.425Z,15.60
2018-03-01T15:46:48.079Z,15.70
2018-03-01T15:49:15.729Z,15.80
2018-03-01T15:51:43.344Z,15.70
2018-03-01T15:54:18.985Z,15.80
2018-03-01T15:56:46.567Z,15.80
2018-03-01T15:59:14.170Z,15.70
2018-03-01T16:01:41.816Z,15.70
2018-03-01T16:04:09.679Z,15.60
2018-03-01T16:06:37.352Z,15.60
2018-03-01T16:09:05.009Z,15.70
2018-03-01T16:11:32.633Z,15.80
2018-03-01T16:14:01.016Z,15.60
2018-03-01T16:16:29.600Z,15.70
2018-03-01T16:18:57.208Z,15.70
2018-03-01T16:21:31.026Z,15.60
2018-03-01T16:23:59.111Z,15.70
2018-03-01T16:26:27.976Z,15.70
2018-03-01T16:28:56.266Z,15.70
2018-03-01T16:31:24.011Z,15.60
2018-03-01T16:33:55.812Z,15.50
2018-03-01T16:36:24.134Z,15.60
2018-03-01T16:38:55.604Z,15.80
2018-03-01T16:41:26.691Z,15.90
2018-03-01T16:43:54.674Z,16.00
2018-03-01T16:46:23.432Z,16.00
2018-03-01T16:48:55.836Z,15.80
2018-03-01T16:51:28.894Z,16.00
2018-03-01T16:53:57.696Z,15.90
2018-03-01T16:56:25.817Z,16.00
2018-03-01T16:58:54.590Z,16.00
2018-03-01T17:01:25.505Z,16.00
2018-03-01T17:03:55.073Z,16.00
2018-03-01T17:06:23.337Z,16.00
2018-03-01T17:08:56.559Z,16.00
2018-03-01T17:11:24.893Z,16.00
2018-03-01T17:13:54.497Z,15.90
2018-03-01T17:16:24.304Z,15.90
2018-03-01T17:18:52.294Z,15.80
2018-03-01T17:21:21.878Z,16.00
2018-03-01T17:23:52.614Z,15.90
2018-03-01T17:26:20.989Z,16.00
2018-03-01T17:28:49.771Z,16.00
2018-03-01T17:31:19.663Z,15.90
2018-03-01T17:33:47.691Z,15.90
2018-03-01T17:36:15.783Z,16.10
2018-03-01T17:38:46.077Z,16.20
2018-03-01T17:41:19.052Z,16.20
2018-03-01T17:43:49.314Z,16.00
2018-03-01T17:46:18.526Z,16.00
2018-03-01T17:48:50.600Z,16.00
2018-03-01T17:51:23.178Z,16.10
2018-03-01T17:53:51.489Z,16.10
2018-03-01T17:56:22.441Z,16.20
2018-03-01T17:58:51.594Z,16.20
2018-03-01T18:01:21.101Z,16.20
2018-03-01T18:03:57.367Z,16.00
2018-03-01T18:06:28.101Z,16.00
2018-03-01T18:08:56.999Z,16.00
2018-03-01T18:11:30.583Z,16.00
2018-03-01T18:14:04.802Z,16.00
2018-03-01T18:16:34.327Z,16.00
2018-03-01T18:19:04.887Z,16.10
2018-03-01T18:21:35.493Z,16.10
2018-03-01T18:24:03.087Z,16.10
2018-03-01T18:26:31.907Z,16.10
2018-03-01T18:29:01.642Z,16.00
2018-03-01T18:31:31.283Z,16.00
2018-03-01T18:34:03.749Z,16.10
2018-03-01T18:36:31.839Z,16.00
2018-03-01T18:39:00.090Z,16.00
2018-03-01T18:41:28.835Z,16.00
2018-03-01T18:43:58.218Z,16.00
2018-03-01T18:46:29.835Z,15.90
2018-03-01T18:49:00.069Z,16.00
2018-03-01T18:51:29.779Z,16.00
2018-03-01T18:53:59.319Z,16.00
2018-03-01T18:56:26.940Z,16.00
2018-03-01T18:58:56.206Z,16.10
2018-03-01T19:01:30.334Z,16.10
2018-03-01T19:03:58.194Z,16.10
2018-03-01T19:06:26.162Z,16.00
2018-03-01T19:08:54.788Z,16.00
2018-03-01T19:11:23.171Z,16.00
2018-03-01T19:13:54.274Z,16.10
2018-03-01T19:16:31.260Z,16.10
2018-03-01T19:19:01.443Z,16.00
2018-03-01T19:21:34.523Z,16.00
2018-03-01T19:24:02.151Z,16.00
2018-03-01T19:26:35.879Z,17.10
2018-03-01T19:29:03.763Z,17.10
2018-03-01T19:31:37.956Z,17.40
2018-03-01T19:34:09.066Z,17.60
2018-03-01T19:36:38.087Z,17.80
2018-03-01T19:39:09.284Z,17.80
2018-03-01T19:41:38.819Z,17.90
2018-03-01T19:44:18.491Z,18.00
2018-03-01T19:46:48.077Z,18.00
2018-03-01T19:49:20.328Z,18.10
2018-03-01T19:51:48.628Z,18.20
2018-03-01T19:54:20.760Z,18.10
2018-03-01T19:56:50.022Z,18.20
2018-03-01T19:59:18.285Z,18.20
2018-03-01T20:01:47.044Z,18.30
2018-03-01T20:04:16.030Z,18.30
2018-03-01T20:06:44.570Z,18.30
2018-03-01T20:09:12.552Z,18.40
2018-03-01T20:11:42.107Z,18.40
2018-03-01T20:14:11.871Z,18.50
2018-03-01T20:16:44.567Z,18.50
2018-03-01T20:19:13.484Z,18.50
2018-03-01T20:21:42.279Z,18.60
2018-03-01T20:24:10.665Z,18.60
2018-03-01T20:26:39.533Z,18.60
2018-03-01T20:29:09.079Z,18.70
2018-03-01T20:31:36.682Z,18.60
2018-03-01T20:34:11.950Z,18.60
2018-03-01T20:36:39.914Z,18.70
2018-03-01T20:39:17.390Z,18.80
2018-03-01T20:41:45.717Z,18.80
2018-03-01T20:44:19.105Z,18.80
2018-03-01T20:46:47.617Z,18.80
2018-03-01T20:49:14.822Z,18.80
2018-03-01T20:51:42.914Z,18.90
2018-03-01T20:54:10.556Z,18.80
2018-03-01T20:56:39.211Z,18.90
2018-03-01T20:59:07.706Z,18.90
2018-03-01T21:01:36.181Z,18.90
2018-03-01T21:04:09.657Z,18.90
2018-03-01T21:06:37.662Z,18.90
2018-03-01T21:09:12.251Z,18.90
2018-03-01T21:11:41.171Z,19.00
2018-03-01T21:14:08.327Z,18.90
2018-03-01T21:16:36.699Z,19.00
2018-03-01T21:19:03.884Z,19.00
2018-03-01T21:21:34.099Z,19.00
2018-03-01T21:24:03.285Z,19.00
2018-03-01T21:26:30.609Z,19.00
2018-03-01T21:28:58.846Z,18.90
2018-03-01T21:31:28.066Z,18.80
2018-03-01T21:34:01.242Z,18.70
2018-03-01T21:36:28.396Z,18.80
2018-03-01T21:39:01.302Z,18.70
2018-03-01T21:41:31.674Z,18.70
2018-03-01T21:43:59.512Z,18.70
2018-03-01T21:46:29.680Z,18.70
2018-03-01T21:48:58.648Z,18.80
2018-03-01T21:51:28.205Z,18.80
2018-03-01T21:53:55.997Z,18.70
2018-03-01T21:56:24.697Z,18.70
2018-03-01T21:58:52.541Z,18.70
2018-03-01T22:01:22.230Z,18.60
2018-03-01T22:03:51.268Z,18.60
2018-03-01T22:06:22.648Z,18.60
2018-03-01T22:08:50.304Z,18.60
2018-03-01T22:11:17.454Z,18.50
2018-03-01T22:13:45.088Z,18.50
2018-03-01T22:16:20.746Z,18.60
2018-03-01T22:18:49.148Z,18.50
2018-03-01T22:21:18.450Z,18.50
2018-03-01T22:23:47.952Z,18.50
2018-03-01T22:26:15.570Z,18.50
2018-03-01T22:28:45.556Z,18.50
2018-03-01T22:31:15.349Z,18.50
2018-03-01T22:33:44.555Z,18.50
2018-03-01T22:36:11.729Z,18.50
2018-03-01T22:38:40.939Z,18.60
2018-03-01T22:41:12.792Z,18.50
2018-03-01T22:43:39.960Z,18.60
2018-03-01T22:46:08.487Z,18.60
2018-03-01T22:48:38.061Z,18.60
2018-03-01T22:51:05.268Z,18.60
2018-03-01T22:53:32.485Z,18.60
2018-03-01T22:56:15.874Z,18.60
2018-03-01T22:58:44.773Z,18.70
2018-03-01T23:01:13.326Z,18.60
2018-03-01T23:03:41.718Z,18.60
2018-03-01T23:08:46.244Z,18.50
2018-03-01T23:11:15.782Z,18.60
2018-03-01T23:13:42.934Z,18.50
2018-03-01T23:16:12.647Z,18.50
2018-03-01T23:18:40.382Z,18.50
2018-03-01T23:21:08.436Z,18.50
2018-03-01T23:23:37.484Z,18.50
2018-03-01T23:26:07.297Z,18.60
2018-03-01T23:28:35.642Z,18.60
2018-03-01T23:31:04.245Z,18.60
2018-03-01T23:33:32.780Z,18.60
2018-03-01T23:36:00.689Z,18.70
2018-03-01T23:38:29.782Z,18.70
2018-03-01T23:40:57.408Z,18.70
2018-03-01T23:43:25.822Z,18.70
2018-03-01T23:45:53.330Z,18.60
2018-03-01T23:48:24.321Z,18.60
2018-03-01T23:50:52.135Z,18.60
2018-03-01T23:53:21.328Z,18.60
2018-03-01T23:55:50.790Z,18.60
2018-03-01T23:58:23.268Z,18.60
